N93SJ KLAL-KMIA
Flight info
| Callsign | N93SJ |
|---|---|
| Flight time | N/A |
| Altitude | 23000 |
| Route | CROWD |
| Aircraft | SF50/L-BDGRSWY/LB2U2 |
Departure
| Time | 2026-04-26 21:42 |
|---|---|
| Airport | Lakeland Linder International Airport (KLAL) |
Arrival
| Time | N/A |
|---|---|
| Airport | Miami International Airport (KMIA) |
| Time | Latitude | Longitude | Altitude | Speed | Heading |
|---|---|---|---|---|---|
| 2026-04-26 21:26 | 27.98610 | -82.02040 | 140 ft | 0 kts | 352° |
| 2026-04-26 21:34 | 27.98616 | -82.02023 | 140 ft | 7 kts | 73° |
| 2026-04-26 21:35 | 27.98696 | -82.01999 | 141 ft | 11 kts | 6° |
| 2026-04-26 21:35 | 27.98728 | -82.01923 | 140 ft | 13 kts | 88° |
| 2026-04-26 21:35 | 27.98732 | -82.01849 | 140 ft | 0 kts | 82° |
| 2026-04-26 21:35 | 27.98696 | -82.01826 | 142 ft | 18 kts | 202° |
| 2026-04-26 21:36 | 27.98588 | -82.01939 | 143 ft | 20 kts | 224° |
| 2026-04-26 21:36 | 27.98495 | -82.02044 | 141 ft | 17 kts | 223° |
| 2026-04-26 21:36 | 27.98420 | -82.02099 | 142 ft | 9 kts | 164° |
| 2026-04-26 21:36 | 27.98378 | -82.02061 | 144 ft | 7 kts | 133° |
| 2026-04-26 21:37 | 27.98327 | -82.01960 | 144 ft | 17 kts | 96° |
| 2026-04-26 21:37 | 27.98324 | -82.01849 | 142 ft | 17 kts | 89° |
| 2026-04-26 21:37 | 27.98326 | -82.01655 | 143 ft | 24 kts | 88° |
| 2026-04-26 21:37 | 27.98331 | -82.01479 | 141 ft | 20 kts | 89° |
| 2026-04-26 21:38 | 27.98333 | -82.01336 | 141 ft | 16 kts | 90° |
| 2026-04-26 21:38 | 27.98335 | -82.01227 | 141 ft | 12 kts | 89° |
| 2026-04-26 21:38 | 27.98338 | -82.01071 | 141 ft | 26 kts | 89° |
| 2026-04-26 21:38 | 27.98346 | -82.00887 | 143 ft | 21 kts | 66° |
| 2026-04-26 21:39 | 27.98429 | -82.00779 | 142 ft | 17 kts | 43° |
| 2026-04-26 21:39 | 27.98521 | -82.00746 | 142 ft | 12 kts | 2° |
| 2026-04-26 21:39 | 27.98595 | -82.00748 | 140 ft | 9 kts | 358° |
| 2026-04-26 21:39 | 27.98650 | -82.00751 | 139 ft | 7 kts | 357° |
| 2026-04-26 21:40 | 27.98757 | -82.00757 | 138 ft | 21 kts | 356° |
| 2026-04-26 21:40 | 27.98838 | -82.00759 | 139 ft | 4 kts | 359° |
| 2026-04-26 21:40 | 27.98895 | -82.00762 | 141 ft | 6 kts | 356° |
| 2026-04-26 21:40 | 27.98929 | -82.00810 | 142 ft | 0 kts | 269° |
| 2026-04-26 21:41 | 27.98929 | -82.00849 | 142 ft | 31 kts | 270° |
| 2026-04-26 21:41 | 27.98927 | -82.01396 | 141 ft | 105 kts | 273° |
| 2026-04-26 21:42 | 27.98943 | -82.02344 | 501 ft | 135 kts | 271° |
| 2026-04-26 21:42 | 27.98936 | -82.03566 | 864 ft | 163 kts | 270° |
| 2026-04-26 21:42 | 27.98941 | -82.04905 | 1251 ft | 180 kts | 269° |
| 2026-04-26 21:42 | 27.98932 | -82.06383 | 1634 ft | 194 kts | 270° |
| 2026-04-26 21:43 | 27.98926 | -82.07949 | 2016 ft | 204 kts | 270° |
| 2026-04-26 21:43 | 27.98912 | -82.09580 | 2394 ft | 210 kts | 270° |
| 2026-04-26 21:43 | 27.98887 | -82.11237 | 2764 ft | 211 kts | 270° |
| 2026-04-26 21:43 | 27.98868 | -82.12911 | 3135 ft | 216 kts | 270° |
| 2026-04-26 21:44 | 27.98844 | -82.14607 | 3491 ft | 218 kts | 270° |
| 2026-04-26 21:44 | 27.98827 | -82.16331 | 3850 ft | 220 kts | 270° |
| 2026-04-26 21:44 | 27.98810 | -82.18064 | 4221 ft | 222 kts | 271° |
| 2026-04-26 21:44 | 27.98789 | -82.19796 | 4602 ft | 220 kts | 270° |
| 2026-04-26 21:45 | 27.98760 | -82.21533 | 4946 ft | 224 kts | 270° |
| 2026-04-26 21:45 | 27.98759 | -82.23299 | 5299 ft | 223 kts | 271° |
| 2026-04-26 21:45 | 27.98761 | -82.25067 | 5659 ft | 226 kts | 272° |
| 2026-04-26 21:45 | 27.98784 | -82.26856 | 5994 ft | 229 kts | 272° |
| 2026-04-26 21:46 | 27.98809 | -82.28655 | 6015 ft | 229 kts | 272° |
| 2026-04-26 21:46 | 27.98827 | -82.30467 | 6016 ft | 234 kts | 272° |
| 2026-04-26 21:46 | 27.98851 | -82.32300 | 6019 ft | 231 kts | 272° |
| 2026-04-26 21:46 | 27.98874 | -82.34100 | 6013 ft | 235 kts | 272° |
| 2026-04-26 21:47 | 27.98899 | -82.35938 | 6015 ft | 228 kts | 272° |
| 2026-04-26 21:47 | 27.98893 | -82.37715 | 6014 ft | 229 kts | 271° |
| 2026-04-26 21:47 | 27.98457 | -82.39450 | 6002 ft | 240 kts | 238° |
| 2026-04-26 21:47 | 27.97112 | -82.40543 | 5996 ft | 249 kts | 200° |
| 2026-04-26 21:48 | 27.95367 | -82.40607 | 6006 ft | 254 kts | 176° |
| 2026-04-26 21:48 | 27.93612 | -82.40331 | 6019 ft | 253 kts | 174° |
| 2026-04-26 21:48 | 27.91854 | -82.40018 | 6019 ft | 254 kts | 173° |
| 2026-04-26 21:48 | 27.90111 | -82.39690 | 6016 ft | 252 kts | 173° |
| 2026-04-26 21:49 | 27.88384 | -82.39391 | 6048 ft | 251 kts | 174° |
| 2026-04-26 21:49 | 27.86687 | -82.39127 | 6266 ft | 250 kts | 174° |
| 2026-04-26 21:49 | 27.84935 | -82.38849 | 6475 ft | 252 kts | 171° |
| 2026-04-26 21:49 | 27.83408 | -82.37928 | 6658 ft | 260 kts | 136° |
| 2026-04-26 21:50 | 27.82559 | -82.36137 | 6858 ft | 260 kts | 105° |
| 2026-04-26 21:50 | 27.82146 | -82.34156 | 7069 ft | 260 kts | 103° |
| 2026-04-26 21:50 | 27.81544 | -82.32227 | 7284 ft | 258 kts | 114° |
| 2026-04-26 21:50 | 27.80733 | -82.30419 | 7505 ft | 260 kts | 117° |
| 2026-04-26 21:51 | 27.79934 | -82.28594 | 7720 ft | 261 kts | 114° |
| 2026-04-26 21:51 | 27.79191 | -82.26734 | 7942 ft | 259 kts | 113° |
| 2026-04-26 21:51 | 27.78438 | -82.24861 | 8162 ft | 260 kts | 114° |
| 2026-04-26 21:51 | 27.77677 | -82.22997 | 8383 ft | 264 kts | 114° |
| 2026-04-26 21:52 | 27.76913 | -82.21118 | 8613 ft | 261 kts | 114° |
| 2026-04-26 21:52 | 27.76178 | -82.19260 | 8831 ft | 264 kts | 113° |
| 2026-04-26 21:52 | 27.75414 | -82.17379 | 9059 ft | 263 kts | 114° |
| 2026-04-26 21:52 | 27.74647 | -82.15515 | 9287 ft | 263 kts | 114° |
| 2026-04-26 21:53 | 27.73862 | -82.13635 | 9514 ft | 266 kts | 114° |
| 2026-04-26 21:53 | 27.73079 | -82.11739 | 9752 ft | 265 kts | 114° |
| 2026-04-26 21:53 | 27.72314 | -82.09836 | 9960 ft | 268 kts | 113° |
| 2026-04-26 21:53 | 27.71525 | -82.07916 | 10172 ft | 270 kts | 114° |
| 2026-04-26 21:54 | 27.70735 | -82.06003 | 10379 ft | 270 kts | 113° |
| 2026-04-26 21:54 | 27.69928 | -82.04119 | 10579 ft | 270 kts | 121° |
| 2026-04-26 21:54 | 27.68477 | -82.02772 | 10759 ft | 272 kts | 160° |
| 2026-04-26 21:54 | 27.66658 | -82.02486 | 10964 ft | 266 kts | 182° |
| 2026-04-26 21:55 | 27.64807 | -82.02436 | 11180 ft | 267 kts | 178° |
| 2026-04-26 21:55 | 27.62969 | -82.02088 | 11397 ft | 269 kts | 169° |
| 2026-04-26 21:55 | 27.61156 | -82.01582 | 11614 ft | 269 kts | 168° |
| 2026-04-26 21:55 | 27.59332 | -82.01130 | 11836 ft | 268 kts | 171° |
| 2026-04-26 21:56 | 27.57493 | -82.00746 | 12054 ft | 268 kts | 172° |
| 2026-04-26 21:56 | 27.55664 | -82.00404 | 12273 ft | 266 kts | 172° |
| 2026-04-26 21:56 | 27.53999 | -81.99485 | 12464 ft | 272 kts | 138° |
| 2026-04-26 21:56 | 27.52947 | -81.97740 | 12680 ft | 271 kts | 116° |
| 2026-04-26 21:57 | 27.52124 | -81.95830 | 12917 ft | 271 kts | 114° |
| 2026-04-26 21:57 | 27.51316 | -81.93909 | 13129 ft | 272 kts | 114° |
| 2026-04-26 21:57 | 27.50516 | -81.91978 | 13362 ft | 273 kts | 114° |
| 2026-04-26 21:57 | 27.49728 | -81.90071 | 13591 ft | 273 kts | 114° |
| 2026-04-26 21:58 | 27.48905 | -81.88145 | 13808 ft | 273 kts | 119° |
| 2026-04-26 21:58 | 27.47724 | -81.86457 | 14009 ft | 274 kts | 133° |
| 2026-04-26 21:58 | 27.46425 | -81.84889 | 14219 ft | 274 kts | 133° |
| 2026-04-26 21:58 | 27.45121 | -81.83325 | 14430 ft | 274 kts | 134° |
| 2026-04-26 21:59 | 27.43813 | -81.81758 | 14640 ft | 274 kts | 134° |
| 2026-04-26 21:59 | 27.42513 | -81.80194 | 14838 ft | 275 kts | 133° |
| 2026-04-26 21:59 | 27.41201 | -81.78615 | 15052 ft | 275 kts | 134° |
| 2026-04-26 21:59 | 27.39897 | -81.77042 | 15270 ft | 275 kts | 133° |
| 2026-04-26 22:00 | 27.38597 | -81.75469 | 15470 ft | 275 kts | 133° |
| 2026-04-26 22:00 | 27.37310 | -81.73909 | 15694 ft | 275 kts | 133° |
| 2026-04-26 22:00 | 27.36010 | -81.72329 | 15919 ft | 275 kts | 133° |
| 2026-04-26 22:00 | 27.34715 | -81.70748 | 16136 ft | 275 kts | 133° |
| 2026-04-26 22:01 | 27.33427 | -81.69166 | 16355 ft | 275 kts | 133° |
| 2026-04-26 22:01 | 27.32154 | -81.67564 | 16577 ft | 274 kts | 132° |
| 2026-04-26 22:01 | 27.30885 | -81.65954 | 16803 ft | 274 kts | 132° |
| 2026-04-26 22:01 | 27.29620 | -81.64346 | 16980 ft | 276 kts | 132° |
| 2026-04-26 22:02 | 27.28331 | -81.62707 | 16980 ft | 283 kts | 132° |
| 2026-04-26 22:02 | 27.27036 | -81.61060 | 16985 ft | 286 kts | 132° |
| 2026-04-26 22:02 | 27.25710 | -81.59371 | 16991 ft | 289 kts | 132° |
| 2026-04-26 22:02 | 27.24361 | -81.57654 | 16992 ft | 292 kts | 132° |
| 2026-04-26 22:03 | 27.23008 | -81.55932 | 16995 ft | 294 kts | 132° |
| 2026-04-26 22:03 | 27.21676 | -81.54235 | 16989 ft | 295 kts | 132° |
| 2026-04-26 22:03 | 27.20289 | -81.52472 | 16991 ft | 297 kts | 132° |
| 2026-04-26 22:03 | 27.18938 | -81.50757 | 16992 ft | 298 kts | 132° |
| 2026-04-26 22:04 | 27.17559 | -81.49008 | 16981 ft | 299 kts | 132° |
| 2026-04-26 22:04 | 27.16181 | -81.47259 | 16982 ft | 300 kts | 132° |
| 2026-04-26 22:04 | 27.14802 | -81.45512 | 16982 ft | 300 kts | 132° |
| 2026-04-26 22:04 | 27.13411 | -81.43752 | 16982 ft | 300 kts | 132° |
| 2026-04-26 22:05 | 27.12022 | -81.42011 | 16983 ft | 301 kts | 133° |
| 2026-04-26 22:05 | 27.10619 | -81.40258 | 16983 ft | 301 kts | 133° |
| 2026-04-26 22:05 | 27.09221 | -81.38511 | 16983 ft | 301 kts | 133° |
| 2026-04-26 22:05 | 27.07817 | -81.36759 | 16986 ft | 301 kts | 133° |
| 2026-04-26 22:06 | 27.06360 | -81.35088 | 16982 ft | 299 kts | 140° |
| 2026-04-26 22:06 | 27.04509 | -81.34119 | 16964 ft | 293 kts | 174° |
| 2026-04-26 22:06 | 27.02559 | -81.34435 | 16968 ft | 281 kts | 209° |
| 2026-04-26 22:06 | 27.01083 | -81.35773 | 16975 ft | 271 kts | 231° |
| 2026-04-26 22:07 | 26.99822 | -81.37291 | 16977 ft | 271 kts | 230° |